createdAt,value
2022-12-16T00:02:21.018Z,2.10
2022-12-16T00:04:52.955Z,2.20
2022-12-16T00:07:21.954Z,2.10
2022-12-16T00:10:00.855Z,2.20
2022-12-16T00:12:30.528Z,2.20
2022-12-16T00:15:08.195Z,2.20
2022-12-16T00:17:37.162Z,2.20
2022-12-16T00:20:06.672Z,2.30
2022-12-16T00:22:35.067Z,2.30
2022-12-16T00:25:10.899Z,2.30
2022-12-16T00:27:40.890Z,2.30
2022-12-16T00:30:16.731Z,2.30
2022-12-16T00:32:52.703Z,2.30
2022-12-16T00:35:24.741Z,2.30
2022-12-16T00:37:53.415Z,2.30
2022-12-16T00:40:22.016Z,2.40
2022-12-16T00:42:56.160Z,2.40
2022-12-16T00:45:35.437Z,2.40
2022-12-16T00:48:09.183Z,2.40
2022-12-16T00:50:38.970Z,2.50
2022-12-16T00:53:07.501Z,2.50
2022-12-16T00:55:41.077Z,2.40
2022-12-16T00:58:11.177Z,2.40
2022-12-16T01:00:47.006Z,2.40
2022-12-16T01:03:21.462Z,2.40
2022-12-16T01:05:51.595Z,2.40
2022-12-16T01:08:21.002Z,2.40
2022-12-16T01:11:02.676Z,2.30
2022-12-16T01:13:32.008Z,2.30
2022-12-16T01:16:07.878Z,2.30
2022-12-16T01:18:50.950Z,2.30
2022-12-16T01:21:24.735Z,2.20
2022-12-16T01:23:55.003Z,2.20
2022-12-16T01:26:26.979Z,2.20
2022-12-16T01:28:55.371Z,2.20
2022-12-16T01:31:28.110Z,2.20
2022-12-16T01:34:06.795Z,2.10
2022-12-16T01:36:40.232Z,2.10
2022-12-16T01:39:17.097Z,2.10
2022-12-16T01:41:49.251Z,2.10
2022-12-16T01:44:21.623Z,2.10
2022-12-16T01:46:59.747Z,2.10
2022-12-16T01:49:29.323Z,2.10
2022-12-16T01:51:58.186Z,2.10
2022-12-16T01:54:35.393Z,2.10
2022-12-16T01:57:14.023Z,2.10
2022-12-16T01:59:45.023Z,2.10
2022-12-16T02:02:16.241Z,2.10
2022-12-16T02:05:06.300Z,2.10
2022-12-16T02:07:38.032Z,2.10
2022-12-16T02:10:18.600Z,2.10
2022-12-16T02:12:50.982Z,2.10
2022-12-16T02:15:32.049Z,2.10
2022-12-16T02:18:22.961Z,2.10
2022-12-16T02:21:30.909Z,2.10
2022-12-16T02:24:30.579Z,2.10
2022-12-16T02:27:52.817Z,2.00
2022-12-16T02:30:56.795Z,2.00
2022-12-16T02:33:50.490Z,1.90
2022-12-16T02:36:31.609Z,1.90
2022-12-16T02:39:07.211Z,1.90
2022-12-16T02:41:42.711Z,1.80
2022-12-16T02:44:16.006Z,1.80
2022-12-16T02:46:56.772Z,1.80
2022-12-16T02:49:49.683Z,1.70
2022-12-16T02:52:19.288Z,1.70
2022-12-16T02:54:53.261Z,1.60
2022-12-16T02:57:55.368Z,1.60
2022-12-16T03:00:25.712Z,1.60
2022-12-16T03:03:03.318Z,1.50
2022-12-16T03:05:39.571Z,1.50
2022-12-16T03:08:11.012Z,1.50
2022-12-16T03:10:42.989Z,1.50
2022-12-16T03:13:11.444Z,1.50
2022-12-16T03:15:42.827Z,1.40
2022-12-16T03:18:16.709Z,1.40
2022-12-16T03:20:55.643Z,1.50
2022-12-16T03:23:27.316Z,1.40
2022-12-16T03:26:04.874Z,1.40
2022-12-16T03:28:45.836Z,1.50
2022-12-16T03:31:19.502Z,1.40
2022-12-16T03:33:53.080Z,1.40
2022-12-16T03:36:30.017Z,1.40
2022-12-16T03:39:05.366Z,1.40
2022-12-16T03:41:39.297Z,1.50
2022-12-16T03:44:09.822Z,1.50
2022-12-16T03:46:42.879Z,1.50
2022-12-16T03:49:23.142Z,1.40
2022-12-16T03:51:53.252Z,1.50
2022-12-16T03:54:24.024Z,1.60
2022-12-16T03:56:54.450Z,1.60
2022-12-16T03:59:28.642Z,1.60
2022-12-16T04:01:56.960Z,1.50
2022-12-16T04:04:26.010Z,1.50
2022-12-16T04:07:10.914Z,1.50
2022-12-16T04:09:44.183Z,1.50
2022-12-16T04:12:29.785Z,1.50
2022-12-16T04:15:15.843Z,1.50
2022-12-16T04:18:04.395Z,1.50
2022-12-16T04:20:50.997Z,1.40
2022-12-16T04:23:37.885Z,1.40
2022-12-16T04:26:06.387Z,1.40
2022-12-16T04:28:40.179Z,1.30
2022-12-16T04:31:08.524Z,1.20
2022-12-16T04:33:54.334Z,1.20
2022-12-16T04:36:46.302Z,1.20
2022-12-16T04:39:32.454Z,1.10
2022-12-16T04:42:18.308Z,1.10
2022-12-16T04:45:05.346Z,1.10
2022-12-16T04:47:57.231Z,1.00
2022-12-16T04:50:43.356Z,1.00
2022-12-16T04:53:28.895Z,1.00
2022-12-16T04:56:16.281Z,0.90
2022-12-16T04:59:02.998Z,0.90
2022-12-16T05:01:48.849Z,0.90
2022-12-16T05:04:45.974Z,0.80
2022-12-16T05:07:36.421Z,0.80
2022-12-16T05:10:25.136Z,0.70
2022-12-16T05:13:12.952Z,0.70
2022-12-16T05:16:00.021Z,0.70
2022-12-16T05:18:45.936Z,0.60
2022-12-16T05:21:33.356Z,0.50
2022-12-16T05:24:22.421Z,0.50
2022-12-16T05:27:07.787Z,0.50
2022-12-16T05:29:55.518Z,0.40
2022-12-16T05:32:41.142Z,0.40
2022-12-16T05:35:26.811Z,0.40
2022-12-16T05:38:13.380Z,0.30
2022-12-16T05:41:01.636Z,0.30
2022-12-16T05:43:47.307Z,0.30
2022-12-16T05:46:34.250Z,0.20
2022-12-16T05:49:19.947Z,0.20
2022-12-16T05:52:10.507Z,0.20
2022-12-16T05:54:56.587Z,0.10
2022-12-16T05:57:42.121Z,0.10
2022-12-16T06:00:32.355Z,0.10
2022-12-16T06:03:25.447Z,0.00
2022-12-16T06:06:13.489Z,0.00
2022-12-16T06:08:59.497Z,0.00
2022-12-16T06:11:45.085Z,0.00
2022-12-16T06:14:34.137Z,0.00
2022-12-16T06:17:19.481Z,0.00
2022-12-16T06:20:06.361Z,0.00
2022-12-16T06:22:51.711Z,0.00
2022-12-16T06:25:39.162Z,0.00
2022-12-16T06:28:24.616Z,0.10
2022-12-16T06:31:10.029Z,0.10
2022-12-16T06:33:55.597Z,0.20
2022-12-16T06:36:42.623Z,0.30
2022-12-16T06:39:28.295Z,0.30
2022-12-16T06:42:14.256Z,0.40
2022-12-16T06:44:59.645Z,0.40
2022-12-16T06:47:47.703Z,0.50
2022-12-16T06:50:33.489Z,0.50
2022-12-16T06:53:26.149Z,0.50
2022-12-16T06:56:11.770Z,0.50
2022-12-16T06:59:00.365Z,0.50
2022-12-16T07:01:46.008Z,0.50
2022-12-16T07:04:34.718Z,0.50
2022-12-16T07:07:22.832Z,0.50
2022-12-16T07:10:11.527Z,0.50
2022-12-16T07:12:56.805Z,0.50
2022-12-16T07:15:43.921Z,0.50
2022-12-16T07:18:33.032Z,0.50
2022-12-16T07:21:18.851Z,0.50
2022-12-16T07:27:34.541Z,0.50
2022-12-16T07:30:27.420Z,0.50
2022-12-16T07:40:29.662Z,0.50
2022-12-16T07:43:37.102Z,0.40
2022-12-16T07:47:16.760Z,0.40
2022-12-16T07:56:48.469Z,0.30
2022-12-16T08:10:53.504Z,0.40
2022-12-16T08:14:19.150Z,0.40
2022-12-16T08:21:00.048Z,0.50
2022-12-16T08:24:05.796Z,0.50
2022-12-16T08:27:10.085Z,0.60
2022-12-16T08:30:25.649Z,0.60
2022-12-16T08:33:32.424Z,0.70
2022-12-16T08:36:38.852Z,0.70
2022-12-16T08:39:42.821Z,0.60
2022-12-16T09:10:53.013Z,0.80
2022-12-16T09:13:50.441Z,0.90
2022-12-16T09:16:56.370Z,1.00
2022-12-16T09:19:42.188Z,1.10
2022-12-16T09:22:37.495Z,1.20
2022-12-16T09:25:34.486Z,1.30
2022-12-16T09:28:25.203Z,1.50
2022-12-16T09:31:24.894Z,1.60
2022-12-16T09:34:29.897Z,1.90
2022-12-16T09:37:26.539Z,2.30
2022-12-16T09:40:27.299Z,2.80
2022-12-16T09:43:38.547Z,3.20
2022-12-16T09:46:44.456Z,3.40
2022-12-16T09:50:09.547Z,3.80
2022-12-16T09:53:09.582Z,4.00
2022-12-16T09:55:59.990Z,4.30
2022-12-16T09:58:53.809Z,4.60
2022-12-16T10:02:12.952Z,4.90
2022-12-16T10:05:05.848Z,5.30
2022-12-16T10:08:06.340Z,5.80
2022-12-16T10:11:07.167Z,6.40
2022-12-16T10:14:07.246Z,6.90
2022-12-16T10:17:03.100Z,7.20
2022-12-16T10:20:09.158Z,7.10
2022-12-16T10:23:30.281Z,6.80
2022-12-16T13:41:23.693Z,6.60
2022-12-16T13:45:36.949Z,6.60
2022-12-16T13:56:41.930Z,6.70
2022-12-16T14:08:13.382Z,6.50
2022-12-16T14:22:34.326Z,6.10
2022-12-16T14:25:43.625Z,5.90
2022-12-16T16:09:54.965Z,3.30
2022-12-16T16:13:10.556Z,3.20
